createdAt,value
2022-07-27T00:00:48.147Z,73.90
2022-07-27T00:03:14.935Z,74.30
2022-07-27T00:05:41.691Z,74.00
2022-07-27T00:08:08.417Z,74.00
2022-07-27T00:10:35.891Z,73.80
2022-07-27T00:13:03.432Z,73.90
2022-07-27T00:15:30.544Z,73.80
2022-07-27T00:18:00.954Z,74.00
2022-07-27T00:20:31.377Z,75.10
2022-07-27T00:22:58.828Z,73.90
2022-07-27T00:25:27.016Z,74.20
2022-07-27T00:27:54.375Z,75.00
2022-07-27T00:30:21.079Z,73.80
2022-07-27T00:32:47.835Z,74.10
2022-07-27T00:35:14.629Z,74.10
2022-07-27T00:37:41.337Z,74.00
2022-07-27T00:40:08.457Z,75.20
2022-07-27T00:42:35.432Z,74.00
2022-07-27T00:45:02.441Z,74.00
2022-07-27T00:47:29.138Z,74.40
2022-07-27T00:49:55.895Z,74.10
2022-07-27T00:52:22.793Z,74.00
2022-07-27T00:54:49.672Z,74.00
2022-07-27T00:57:16.573Z,74.10
2022-07-27T00:59:43.299Z,74.10
2022-07-27T01:02:12.156Z,74.90
2022-07-27T01:04:39.454Z,74.50
2022-07-27T01:07:07.193Z,75.20
2022-07-27T01:09:53.198Z,75.20
2022-07-27T01:12:23.360Z,74.00
2022-07-27T01:14:51.109Z,74.10
2022-07-27T01:17:17.841Z,74.00
2022-07-27T01:19:45.398Z,74.00
2022-07-27T01:22:12.234Z,74.80
2022-07-27T01:24:38.970Z,74.30
2022-07-27T01:27:06.050Z,74.00
2022-07-27T01:29:33.878Z,74.00
2022-07-27T01:32:01.968Z,74.10
2022-07-27T01:34:28.924Z,74.00
2022-07-27T01:36:55.603Z,74.10
2022-07-27T01:39:22.383Z,74.30
2022-07-27T01:41:49.089Z,74.80
2022-07-27T01:44:15.859Z,73.90
2022-07-27T01:46:42.608Z,73.70
2022-07-27T01:49:09.936Z,73.70
2022-07-27T01:51:36.899Z,73.70
2022-07-27T01:54:03.641Z,73.60
2022-07-27T01:56:30.327Z,73.60
2022-07-27T01:58:57.133Z,73.50
2022-07-27T02:01:23.923Z,73.50
2022-07-27T02:03:50.696Z,73.30
2022-07-27T02:06:17.408Z,73.40
2022-07-27T02:08:44.139Z,73.20
2022-07-27T02:11:29.752Z,73.30
2022-07-27T02:13:56.460Z,73.20
2022-07-27T02:16:24.478Z,73.00
2022-07-27T02:18:51.305Z,73.00
2022-07-27T02:21:18.066Z,73.00
2022-07-27T02:23:46.919Z,72.90
2022-07-27T02:26:13.716Z,73.00
2022-07-27T02:28:40.389Z,72.90
2022-07-27T02:31:07.325Z,72.90
2022-07-27T02:33:34.143Z,72.80
2022-07-27T02:36:00.978Z,72.80
2022-07-27T02:38:27.701Z,72.80
2022-07-27T02:40:54.484Z,73.60
2022-07-27T02:43:21.229Z,72.80
2022-07-27T02:45:50.046Z,72.70
2022-07-27T02:48:17.062Z,72.70
2022-07-27T02:50:43.780Z,72.70
2022-07-27T02:53:10.480Z,73.70
2022-07-27T02:55:37.145Z,74.10
2022-07-27T02:58:03.832Z,73.80
2022-07-27T03:00:30.663Z,73.20
2022-07-27T03:02:57.358Z,72.90
2022-07-27T03:05:24.121Z,74.40
2022-07-27T03:07:50.843Z,73.20
2022-07-27T03:10:17.567Z,73.20
2022-07-27T03:12:44.329Z,73.30
2022-07-27T03:15:11.384Z,73.40
2022-07-27T03:17:38.282Z,73.50
2022-07-27T03:20:05.342Z,73.40
2022-07-27T03:22:35.582Z,73.30
2022-07-27T03:25:02.308Z,73.30
2022-07-27T03:27:29.326Z,74.00
2022-07-27T03:29:56.479Z,73.40
2022-07-27T03:32:23.379Z,73.50
2022-07-27T03:34:50.386Z,73.40
2022-07-27T03:37:19.005Z,73.50
2022-07-27T03:39:46.129Z,73.50
2022-07-27T03:42:13.048Z,74.50
2022-07-27T03:44:39.863Z,73.40
2022-07-27T03:47:06.604Z,74.90
2022-07-27T03:49:33.468Z,73.40
2022-07-27T03:52:00.360Z,73.40
2022-07-27T03:54:27.275Z,73.50
2022-07-27T03:56:54.108Z,74.60
2022-07-27T03:59:20.812Z,73.30
2022-07-27T04:01:47.818Z,74.60
2022-07-27T04:04:14.750Z,73.30
2022-07-27T04:06:41.448Z,73.30
2022-07-27T04:09:09.130Z,73.30
2022-07-27T04:11:37.740Z,73.20
2022-07-27T04:14:12.789Z,73.10
2022-07-27T04:16:39.795Z,73.20
2022-07-27T04:19:06.660Z,73.80
2022-07-27T04:21:34.696Z,73.00
2022-07-27T04:24:01.786Z,73.10
2022-07-27T04:26:28.616Z,73.00
2022-07-27T04:28:55.396Z,73.10
2022-07-27T04:31:22.505Z,72.90
2022-07-27T04:33:49.298Z,72.90
2022-07-27T04:36:16.509Z,72.90
2022-07-27T04:38:43.182Z,72.80
2022-07-27T04:41:09.976Z,73.40
2022-07-27T04:43:36.737Z,72.90
2022-07-27T04:46:10.527Z,74.00
2022-07-27T04:48:39.971Z,72.70
2022-07-27T04:51:08.260Z,73.00
2022-07-27T04:53:37.001Z,72.50
2022-07-27T04:56:20.531Z,72.60
2022-07-27T04:58:47.753Z,72.50
2022-07-27T05:01:14.703Z,72.60
2022-07-27T05:03:43.141Z,72.50
2022-07-27T05:06:09.943Z,72.40
2022-07-27T05:08:36.675Z,72.40
2022-07-27T05:11:03.380Z,72.40
2022-07-27T05:13:30.093Z,72.30
2022-07-27T05:15:56.852Z,72.30
2022-07-27T05:18:23.774Z,72.20
2022-07-27T05:20:50.644Z,73.00
2022-07-27T05:23:17.652Z,72.20
2022-07-27T05:25:44.426Z,72.10
2022-07-27T05:28:12.124Z,72.10
2022-07-27T05:30:38.847Z,72.40
2022-07-27T05:33:05.615Z,71.90
2022-07-27T05:35:32.370Z,72.60
2022-07-27T05:37:59.319Z,71.80
2022-07-27T05:40:26.637Z,71.70
2022-07-27T05:42:53.391Z,71.80
2022-07-27T05:45:20.159Z,71.80
2022-07-27T05:47:46.967Z,71.80
2022-07-27T05:50:14.116Z,71.80
2022-07-27T05:52:41.106Z,71.70
2022-07-27T05:55:08.001Z,71.60
2022-07-27T05:57:34.748Z,71.50
2022-07-27T06:00:01.645Z,71.50
2022-07-27T06:02:30.251Z,71.50
2022-07-27T06:04:57.348Z,71.40
2022-07-27T06:07:42.733Z,71.40
2022-07-27T06:10:09.940Z,71.40
2022-07-27T06:12:38.481Z,71.40
2022-07-27T06:15:05.723Z,71.40
2022-07-27T06:17:32.436Z,71.30
2022-07-27T06:19:59.204Z,71.20
2022-07-27T06:22:26.020Z,71.30
2022-07-27T06:24:53.626Z,71.20
2022-07-27T06:27:20.791Z,71.30
2022-07-27T06:29:47.567Z,71.30
2022-07-27T06:32:14.296Z,71.30
2022-07-27T06:34:43.301Z,71.30
2022-07-27T06:37:10.024Z,71.90
2022-07-27T06:39:36.774Z,71.70
2022-07-27T06:42:03.623Z,72.00
2022-07-27T06:44:30.304Z,72.50
2022-07-27T06:46:57.059Z,72.20
2022-07-27T06:49:23.896Z,73.50
2022-07-27T06:51:50.707Z,72.30
2022-07-27T06:54:17.480Z,72.10
2022-07-27T06:56:44.778Z,72.10
2022-07-27T06:59:11.799Z,72.10
2022-07-27T07:01:38.662Z,72.00
2022-07-27T07:04:05.574Z,72.00
2022-07-27T07:06:32.561Z,72.10
2022-07-27T07:08:59.944Z,72.10
2022-07-27T07:11:26.665Z,72.00
2022-07-27T07:13:53.418Z,71.90
2022-07-27T07:16:20.143Z,72.00
2022-07-27T07:18:52.057Z,71.90
2022-07-27T07:21:19.291Z,72.00
2022-07-27T07:23:46.105Z,71.90
2022-07-27T07:26:12.799Z,71.70
2022-07-27T07:28:39.665Z,72.20
2022-07-27T07:31:06.638Z,71.70
2022-07-27T07:33:33.375Z,71.90
2022-07-27T07:36:12.855Z,71.80
2022-07-27T07:38:41.171Z,71.90
2022-07-27T07:41:07.821Z,71.80
2022-07-27T07:43:36.731Z,72.00
2022-07-27T07:46:03.610Z,71.90
2022-07-27T07:48:30.590Z,71.70
2022-07-27T07:50:57.387Z,72.00
2022-07-27T07:53:24.599Z,72.10
2022-07-27T07:55:52.266Z,72.20
2022-07-27T07:58:19.600Z,72.00
2022-07-27T08:00:46.319Z,72.10
2022-07-27T08:03:13.147Z,72.10
2022-07-27T08:05:39.923Z,72.50
2022-07-27T08:08:06.889Z,71.90
2022-07-27T08:10:33.669Z,72.00
2022-07-27T08:13:00.319Z,71.80
2022-07-27T08:15:29.995Z,71.90
2022-07-27T08:18:06.518Z,71.80
2022-07-27T08:20:33.700Z,72.00
2022-07-27T08:23:00.654Z,71.90
2022-07-27T08:25:27.551Z,71.70
2022-07-27T08:27:55.517Z,71.50
2022-07-27T08:30:23.558Z,71.80
2022-07-27T08:32:52.089Z,71.60
2022-07-27T08:35:19.618Z,71.80
2022-07-27T08:37:46.635Z,71.50
2022-07-27T08:43:01.223Z,71.30
2022-07-27T08:45:28.667Z,71.40
2022-07-27T08:47:55.539Z,71.50
2022-07-27T08:50:27.526Z,71.60
2022-07-27T08:52:55.631Z,72.40
2022-07-27T08:55:23.320Z,71.70
2022-07-27T08:57:50.702Z,71.60
2022-07-27T09:00:18.185Z,71.80
2022-07-27T09:02:45.440Z,71.70
2022-07-27T09:05:12.217Z,71.70
2022-07-27T09:07:38.932Z,71.90
2022-07-27T09:10:06.024Z,71.70
2022-07-27T09:12:33.139Z,71.40
2022-07-27T09:15:05.047Z,71.40
2022-07-27T09:17:48.888Z,71.60
2022-07-27T09:20:18.589Z,71.60
2022-07-27T09:22:53.112Z,71.50
2022-07-27T09:25:33.058Z,71.30
2022-07-27T09:28:07.960Z,71.50
2022-07-27T09:30:40.915Z,71.50
2022-07-27T09:33:07.579Z,71.50
2022-07-27T09:35:35.752Z,71.60
2022-07-27T09:38:17.412Z,72.90
2022-07-27T09:40:44.200Z,71.60
2022-07-27T09:46:05.926Z,69.00
2022-07-27T09:48:34.660Z,70.10
2022-07-27T09:51:32.801Z,70.70
2022-07-27T09:53:50.165Z,71.40
2022-07-27T09:56:18.055Z,72.10
2022-07-27T09:58:47.760Z,71.10
2022-07-27T10:01:17.291Z,68.80
2022-07-27T10:03:45.946Z,68.50
2022-07-27T10:06:13.031Z,68.10
2022-07-27T10:08:40.955Z,67.90
2022-07-27T10:11:07.811Z,67.90
2022-07-27T10:13:43.631Z,67.80
2022-07-27T10:16:13.415Z,67.00
2022-07-27T10:18:58.630Z,66.60
2022-07-27T10:21:26.249Z,66.50
2022-07-27T10:23:57.379Z,66.30
2022-07-27T10:26:23.986Z,66.90
2022-07-27T10:28:58.781Z,67.00
2022-07-27T10:31:26.657Z,67.40
2022-07-27T10:33:54.529Z,67.30
2022-07-27T10:36:23.905Z,67.60
2022-07-27T10:38:51.700Z,68.30
2022-07-27T10:41:22.512Z,68.20
2022-07-27T10:43:50.594Z,68.10
2022-07-27T10:46:20.964Z,68.50
2022-07-27T10:48:49.252Z,68.60
2022-07-27T10:51:17.037Z,68.70
2022-07-27T10:54:11.126Z,68.60
2022-07-27T10:56:44.495Z,68.50
2022-07-27T10:59:11.141Z,68.60
2022-07-27T11:01:54.874Z,68.60
2022-07-27T11:04:21.765Z,68.40
2022-07-27T11:07:22.932Z,68.60
2022-07-27T11:12:29.536Z,68.50
2022-07-27T11:14:57.972Z,68.90
2022-07-27T11:20:15.658Z,69.20
2022-07-27T11:25:29.170Z,69.70
2022-07-27T11:27:55.860Z,68.90
2022-07-27T11:30:23.876Z,69.00
2022-07-27T11:32:50.687Z,69.20
2022-07-27T11:35:20.226Z,69.30
2022-07-27T11:38:00.540Z,69.40
2022-07-27T11:43:15.606Z,69.50
2022-07-27T11:45:43.038Z,69.60
2022-07-27T11:48:12.812Z,69.80
2022-07-27T11:50:58.799Z,69.80
2022-07-27T11:53:26.692Z,69.60
2022-07-27T11:55:54.269Z,69.80
2022-07-27T11:58:21.046Z,69.90
2022-07-27T12:00:47.684Z,70.00
2022-07-27T12:03:21.039Z,69.90
2022-07-27T12:05:57.080Z,69.90
2022-07-27T12:08:24.363Z,69.90
2022-07-27T12:10:57.811Z,69.90
2022-07-27T12:13:34.471Z,70.10
2022-07-27T12:16:01.130Z,70.10
2022-07-27T12:18:40.910Z,70.20
2022-07-27T12:21:19.807Z,70.20
2022-07-27T12:23:50.764Z,70.30
2022-07-27T12:26:20.626Z,70.30
2022-07-27T12:29:04.513Z,70.30
2022-07-27T12:31:31.289Z,70.40
2022-07-27T12:34:05.616Z,70.60
2022-07-27T12:36:33.132Z,69.90
2022-07-27T12:38:59.822Z,70.30
2022-07-27T12:41:29.575Z,70.00
2022-07-27T12:44:13.331Z,70.20
2022-07-27T12:46:52.640Z,69.90
2022-07-27T12:49:23.718Z,69.40
2022-07-27T12:51:50.714Z,69.40
2022-07-27T12:54:17.953Z,69.40
2022-07-27T12:56:44.770Z,69.40
2022-07-27T12:59:11.778Z,69.80
2022-07-27T13:01:38.678Z,70.10
2022-07-27T13:04:05.442Z,70.30
2022-07-27T13:06:32.076Z,70.30
2022-07-27T13:08:58.732Z,70.00
2022-07-27T13:11:25.514Z,70.10
2022-07-27T13:13:52.206Z,70.10
2022-07-27T13:16:18.935Z,70.40
2022-07-27T13:18:45.819Z,70.50
2022-07-27T13:21:13.349Z,70.60
2022-07-27T13:23:40.001Z,70.70
2022-07-27T13:26:06.679Z,70.70
2022-07-27T13:28:33.379Z,70.60
2022-07-27T13:31:00.317Z,70.90
2022-07-27T13:33:27.079Z,70.90
2022-07-27T13:36:00.159Z,71.00
2022-07-27T13:38:28.760Z,71.70
2022-07-27T13:40:55.745Z,71.10
2022-07-27T13:43:22.459Z,71.20
2022-07-27T13:45:49.560Z,71.40
2022-07-27T13:48:16.697Z,71.30
2022-07-27T13:50:43.542Z,71.10
2022-07-27T13:53:15.244Z,71.10
2022-07-27T13:55:42.909Z,71.10
2022-07-27T13:58:11.770Z,71.00
2022-07-27T14:00:38.889Z,71.10
2022-07-27T14:03:06.258Z,71.20
2022-07-27T14:05:33.068Z,71.20
2022-07-27T14:08:01.654Z,71.10
2022-07-27T14:10:31.591Z,70.60
2022-07-27T14:13:07.243Z,71.00
2022-07-27T14:15:54.137Z,70.90
2022-07-27T14:18:22.669Z,70.90
2022-07-27T14:20:49.581Z,71.10
2022-07-27T14:23:16.231Z,71.10
2022-07-27T14:25:42.920Z,71.00
2022-07-27T14:28:09.573Z,70.90
2022-07-27T14:30:36.300Z,71.10
2022-07-27T14:33:03.287Z,71.20
2022-07-27T14:35:30.463Z,71.30
2022-07-27T14:37:58.488Z,71.20
2022-07-27T14:40:25.756Z,70.80
2022-07-27T14:42:52.513Z,70.80
2022-07-27T14:45:19.950Z,70.80
2022-07-27T14:47:47.207Z,70.90
2022-07-27T14:50:14.047Z,71.20
2022-07-27T14:52:40.979Z,71.40
2022-07-27T14:55:07.865Z,71.50
2022-07-27T14:57:34.587Z,71.70
2022-07-27T15:00:01.303Z,71.60
2022-07-27T15:02:28.354Z,71.70
2022-07-27T15:04:55.074Z,71.90
2022-07-27T15:07:21.822Z,71.70
2022-07-27T15:09:48.551Z,72.00
2022-07-27T15:12:15.848Z,72.10
2022-07-27T15:14:43.504Z,71.90
2022-07-27T15:17:10.171Z,71.70
2022-07-27T15:19:36.819Z,71.80
2022-07-27T15:22:03.527Z,71.70
2022-07-27T15:24:33.836Z,71.80
2022-07-27T15:27:03.316Z,72.00
2022-07-27T15:29:30.432Z,72.10
2022-07-27T15:31:57.167Z,71.70
2022-07-27T15:34:23.834Z,70.70
2022-07-27T15:36:52.306Z,71.00
2022-07-27T15:39:22.940Z,70.60
2022-07-27T15:41:49.977Z,70.60
2022-07-27T15:44:20.908Z,70.60
2022-07-27T15:46:48.085Z,70.60
2022-07-27T15:49:15.244Z,70.40
2022-07-27T15:51:42.286Z,70.50
2022-07-27T15:54:08.947Z,70.00
2022-07-27T15:56:35.628Z,70.00
2022-07-27T15:59:02.303Z,70.00
2022-07-27T16:01:35.497Z,70.30
2022-07-27T16:04:03.135Z,70.10
2022-07-27T16:06:34.013Z,70.20
2022-07-27T16:09:04.241Z,70.00
2022-07-27T16:11:30.943Z,70.30
2022-07-27T16:13:57.640Z,70.60
2022-07-27T16:16:30.678Z,70.80
2022-07-27T16:18:58.190Z,71.00
2022-07-27T16:21:25.184Z,70.80
2022-07-27T16:23:52.924Z,70.70
2022-07-27T16:26:19.955Z,70.90
2022-07-27T16:28:47.748Z,71.10
2022-07-27T16:31:15.897Z,71.20
2022-07-27T16:33:46.318Z,71.20
2022-07-27T16:36:13.530Z,71.10
2022-07-27T16:38:50.303Z,70.80
2022-07-27T16:41:19.098Z,70.80
2022-07-27T16:43:46.153Z,71.00
2022-07-27T16:46:13.001Z,71.10
2022-07-27T16:48:41.847Z,71.10
2022-07-27T16:51:11.000Z,71.00
2022-07-27T16:53:38.540Z,70.70
2022-07-27T16:56:05.695Z,70.80
2022-07-27T16:58:32.691Z,70.70
2022-07-27T17:00:59.427Z,70.50
2022-07-27T17:03:26.279Z,70.70
2022-07-27T17:05:53.015Z,71.50
2022-07-27T17:08:20.236Z,70.90
2022-07-27T17:10:54.608Z,70.90
2022-07-27T17:13:21.449Z,70.80
2022-07-27T17:15:48.258Z,70.70
2022-07-27T17:18:16.144Z,70.70
2022-07-27T17:20:42.861Z,70.80
2022-07-27T17:23:11.715Z,70.90
2022-07-27T17:25:38.600Z,70.90
2022-07-27T17:28:05.346Z,71.00
2022-07-27T17:30:37.841Z,70.70
2022-07-27T17:33:04.896Z,70.70
2022-07-27T17:35:32.118Z,70.60
2022-07-27T17:38:07.105Z,70.60
2022-07-27T17:40:34.678Z,70.50
2022-07-27T17:43:01.476Z,70.90
2022-07-27T17:45:28.157Z,70.60
2022-07-27T17:47:54.961Z,70.50
2022-07-27T17:50:21.689Z,70.60
2022-07-27T17:52:48.408Z,70.70
2022-07-27T17:55:15.101Z,70.80
2022-07-27T17:57:41.933Z,70.60
2022-07-27T18:00:10.702Z,70.50
2022-07-27T18:02:37.359Z,70.50
2022-07-27T18:05:04.146Z,70.50
2022-07-27T18:07:39.221Z,70.30
2022-07-27T18:10:07.877Z,70.10
2022-07-27T18:12:35.562Z,70.00
2022-07-27T18:15:20.982Z,70.20
2022-07-27T18:17:47.640Z,70.10
2022-07-27T18:20:14.387Z,70.00
2022-07-27T18:22:41.416Z,70.10
2022-07-27T18:25:08.384Z,70.20
2022-07-27T18:27:35.643Z,70.10
2022-07-27T18:30:05.145Z,70.10
2022-07-27T18:32:32.932Z,70.40
2022-07-27T18:35:00.233Z,70.30
2022-07-27T18:37:27.158Z,70.00
2022-07-27T18:39:53.823Z,70.00
2022-07-27T18:42:20.693Z,70.20
2022-07-27T18:44:47.511Z,70.20
2022-07-27T18:47:14.698Z,70.30
2022-07-27T18:49:41.379Z,70.30
2022-07-27T18:52:08.234Z,70.30
2022-07-27T18:54:34.934Z,70.40
2022-07-27T18:57:01.601Z,70.40
2022-07-27T18:59:28.357Z,70.80
2022-07-27T19:01:55.111Z,70.70
2022-07-27T19:04:22.033Z,70.70
2022-07-27T19:06:52.773Z,70.80
2022-07-27T19:09:19.570Z,70.80
2022-07-27T19:11:46.390Z,70.80
2022-07-27T19:14:13.096Z,70.90
2022-07-27T19:16:39.941Z,70.90
2022-07-27T19:19:12.027Z,70.90
2022-07-27T19:21:41.771Z,70.80
2022-07-27T19:24:08.620Z,70.90
2022-07-27T19:26:36.317Z,71.10
2022-07-27T19:29:04.052Z,71.30
2022-07-27T19:31:30.829Z,71.30
2022-07-27T19:33:57.613Z,71.30
2022-07-27T19:36:24.361Z,71.40
2022-07-27T19:38:51.425Z,71.50
2022-07-27T19:41:18.341Z,71.30
2022-07-27T19:43:45.040Z,71.50
2022-07-27T19:46:11.979Z,71.30
2022-07-27T19:48:38.922Z,71.30
2022-07-27T19:51:07.220Z,71.30
2022-07-27T19:53:35.609Z,72.70
2022-07-27T19:56:02.710Z,71.40
2022-07-27T19:58:32.401Z,71.40
2022-07-27T20:00:59.272Z,71.20
2022-07-27T20:03:26.367Z,71.10
2022-07-27T20:05:53.188Z,71.10
2022-07-27T20:08:19.964Z,71.10
2022-07-27T20:10:47.595Z,71.10
2022-07-27T20:13:14.704Z,70.90
2022-07-27T20:15:43.293Z,70.90
2022-07-27T20:18:10.099Z,70.90
2022-07-27T20:20:36.878Z,71.10
2022-07-27T20:23:03.785Z,70.80
2022-07-27T20:25:31.494Z,71.20
2022-07-27T20:27:59.017Z,71.50
2022-07-27T20:30:25.987Z,71.50
2022-07-27T20:32:52.788Z,71.30
2022-07-27T20:35:19.491Z,71.20
2022-07-27T20:37:47.382Z,71.20
2022-07-27T20:40:14.144Z,71.10
2022-07-27T20:42:41.495Z,71.20
2022-07-27T20:45:10.154Z,71.00
2022-07-27T20:47:38.436Z,71.10
2022-07-27T20:50:06.637Z,71.00
2022-07-27T20:52:33.333Z,70.90
2022-07-27T20:55:00.017Z,71.00
2022-07-27T20:57:26.887Z,71.10
2022-07-27T20:59:53.539Z,70.90
2022-07-27T21:02:20.355Z,69.60
2022-07-27T21:04:47.081Z,71.00
2022-07-27T21:07:13.838Z,71.00
2022-07-27T21:09:40.493Z,71.00
2022-07-27T21:12:07.768Z,71.00
2022-07-27T21:14:34.450Z,71.10
2022-07-27T21:17:01.289Z,71.00
2022-07-27T21:19:28.022Z,71.00
2022-07-27T21:21:54.703Z,71.00
2022-07-27T21:24:22.856Z,71.10
2022-07-27T21:26:50.561Z,71.10
2022-07-27T21:29:17.792Z,71.00
2022-07-27T21:31:46.642Z,71.20
2022-07-27T21:34:15.083Z,71.10
2022-07-27T21:36:42.548Z,71.20
2022-07-27T21:39:09.451Z,71.30
2022-07-27T21:41:36.330Z,71.30
2022-07-27T21:44:03.253Z,71.20
2022-07-27T21:46:30.169Z,71.20
2022-07-27T21:48:57.161Z,71.20
2022-07-27T21:51:24.157Z,71.20
2022-07-27T21:53:50.888Z,71.20
2022-07-27T21:56:17.778Z,71.20
2022-07-27T21:58:48.066Z,71.20
2022-07-27T22:01:15.593Z,71.20
2022-07-27T22:03:43.145Z,71.20
2022-07-27T22:06:10.275Z,71.20
2022-07-27T22:08:37.248Z,71.40
2022-07-27T22:11:04.043Z,71.00
2022-07-27T22:13:31.559Z,71.00
2022-07-27T22:15:58.274Z,70.90
2022-07-27T22:18:25.064Z,70.90
2022-07-27T22:20:52.295Z,70.90
2022-07-27T22:23:19.000Z,70.90
2022-07-27T22:25:45.742Z,70.80
2022-07-27T22:28:12.437Z,70.80
2022-07-27T22:30:40.226Z,70.70
2022-07-27T22:33:08.111Z,70.70
2022-07-27T22:35:34.814Z,70.60
2022-07-27T22:38:02.005Z,70.60
2022-07-27T22:40:28.917Z,70.50
2022-07-27T22:42:55.814Z,70.50
2022-07-27T22:45:23.149Z,70.50
2022-07-27T22:47:50.458Z,70.40
2022-07-27T22:50:18.545Z,70.40
2022-07-27T22:52:45.276Z,70.40
2022-07-27T22:55:11.957Z,70.40
2022-07-27T22:57:38.612Z,70.40
2022-07-27T23:00:06.105Z,70.40
2022-07-27T23:02:32.786Z,70.30
2022-07-27T23:04:59.470Z,70.90
2022-07-27T23:07:26.180Z,70.30
2022-07-27T23:09:52.863Z,70.60
2022-07-27T23:12:24.265Z,70.20
2022-07-27T23:14:51.008Z,70.10
2022-07-27T23:17:17.723Z,70.10
2022-07-27T23:19:44.397Z,70.10
2022-07-27T23:22:11.596Z,70.00
2022-07-27T23:24:41.000Z,69.90
2022-07-27T23:27:07.840Z,70.00
2022-07-27T23:29:34.539Z,69.90
2022-07-27T23:32:02.895Z,69.90
2022-07-27T23:34:29.712Z,69.90
2022-07-27T23:36:56.468Z,69.90
2022-07-27T23:39:23.118Z,68.50
2022-07-27T23:41:50.287Z,69.80
2022-07-27T23:44:17.514Z,69.80
2022-07-27T23:46:44.455Z,69.80
2022-07-27T23:49:11.603Z,69.80
2022-07-27T23:51:38.377Z,69.60
2022-07-27T23:54:05.201Z,69.90
2022-07-27T23:56:31.889Z,70.10
2022-07-27T23:58:58.669Z,70.30
